Time;durP1;ratioP1;P1;durP2;ratioP2;P2;SDS_P1;SDS_P2;PMS_P1;PMS_P2;Temp;Humidity;BMP_temperature;BMP_pressure;BME280_temperature;BME280_humidity;BME280_pressure;Samples;Min_cycle;Max_cycle;Signal;HPM_P1;HPM_P2
2021/10/25 00:00:51;;;;;;;4.72;2.17;;;;;;;5.99;49.98;102077.72;1716796;81;21082;-57
2021/10/25 00:03:17;;;;;;;6.85;2.27;;;;;;;5.92;50.23;102072.28;1733092;80;21004;-57
2021/10/25 00:05:44;;;;;;;6.30;2.65;;;;;;;5.87;50.44;102079.42;1734259;80;21554;-57
2021/10/25 00:08:13;;;;;;;5.92;2.35;;;;;;;5.80;50.57;102076.16;1724173;81;21055;-57
2021/10/25 00:10:41;;;;;;;5.03;1.90;;;;;;;5.75;50.66;102078.06;1738377;81;21202;-58
2021/10/25 00:13:07;;;;;;;6.35;2.40;;;;;;;5.69;50.77;102080.41;1735660;80;20983;-56
2021/10/25 00:15:36;;;;;;;5.83;2.87;;;;;;;5.65;50.88;102074.89;1742225;80;21894;-56
2021/10/25 00:18:05;;;;;;;5.92;2.27;;;;;;;5.64;51.02;102078.85;1742489;80;21122;-58
2021/10/25 00:20:33;;;;;;;6.53;2.80;;;;;;;5.59;51.17;102089.44;1740833;80;21908;-58
2021/10/25 00:23:00;;;;;;;5.62;2.45;;;;;;;5.56;51.36;102089.53;1744201;81;21130;-57
2021/10/25 00:25:26;;;;;;;6.08;2.08;;;;;;;5.53;51.45;102089.19;1727771;80;21082;-58
2021/10/25 00:27:53;;;;;;;6.33;2.90;;;;;;;5.50;51.69;102087.13;1727184;80;21118;-58
2021/10/25 00:30:19;;;;;;;5.92;2.35;;;;;;;5.43;51.79;102090.81;1715761;81;21087;-57
2021/10/25 00:32:46;;;;;;;6.87;2.65;;;;;;;5.34;51.98;102088.89;1718306;80;21138;-57
2021/10/25 00:35:12;;;;;;;4.95;2.02;;;;;;;5.26;52.07;102086.99;1724616;80;21487;-57
2021/10/25 00:37:39;;;;;;;5.80;2.50;;;;;;;5.20;52.01;102094.54;1719817;82;21070;-58
2021/10/25 00:40:07;;;;;;;8.85;2.90;;;;;;;5.11;51.79;102088.30;1726169;80;21153;-58
2021/10/25 00:42:34;;;;;;;6.28;2.67;;;;;;;5.00;51.88;102091.21;1727192;80;21059;-58
2021/10/25 00:45:00;;;;;;;6.53;2.35;;;;;;;4.90;51.98;102092.38;1726973;80;21067;-58
2021/10/25 00:47:27;;;;;;;6.83;2.50;;;;;;;4.78;52.37;102090.14;1723518;80;21666;-57
2021/10/25 00:49:53;;;;;;;5.37;2.10;;;;;;;4.67;52.48;102094.80;1719509;81;21044;-57
2021/10/25 00:52:20;;;;;;;8.55;2.95;;;;;;;4.58;52.68;102095.91;1734457;80;21508;-57
2021/10/25 00:54:46;;;;;;;5.65;2.47;;;;;;;4.52;52.89;102100.82;1722906;81;21086;-57
2021/10/25 00:57:12;;;;;;;7.00;2.62;;;;;;;4.46;53.01;102094.49;1728458;80;22118;-56
2021/10/25 00:59:41;;;;;;;6.12;2.62;;;;;;;4.42;53.20;102095.03;1727040;80;22374;-57
2021/10/25 01:02:08;;;;;;;6.17;2.60;;;;;;;4.37;53.32;102094.30;1725168;80;21106;-57
2021/10/25 01:04:35;;;;;;;7.80;2.75;;;;;;;4.32;53.54;102091.38;1720394;82;21063;-57
2021/10/25 01:07:02;;;;;;;6.37;2.95;;;;;;;4.25;53.67;102086.78;1731483;80;21091;-57
2021/10/25 01:09:29;;;;;;;6.50;2.47;;;;;;;4.21;53.78;102088.62;1733056;80;21074;-57
2021/10/25 01:11:55;;;;;;;8.60;2.77;;;;;;;4.19;53.92;102089.56;1717165;82;21777;-58
2021/10/25 01:14:22;;;;;;;7.97;2.62;;;;;;;4.17;53.98;102083.09;1719877;80;21078;-59
2021/10/25 01:16:48;;;;;;;7.53;2.80;;;;;;;4.14;54.20;102086.23;1719505;81;21146;-57
2021/10/25 01:19:16;;;;;;;6.75;2.80;;;;;;;4.11;54.36;102098.87;1726274;80;21031;-57
2021/10/25 01:21:42;;;;;;;9.70;3.22;;;;;;;4.06;54.49;102092.92;1727327;81;21102;-57
2021/10/25 01:24:08;;;;;;;8.40;3.27;;;;;;;4.04;54.51;102101.23;1727489;82;21553;-57
2021/10/25 01:26:35;;;;;;;9.10;3.33;;;;;;;3.98;54.61;102100.07;1712726;81;21597;-57
2021/10/25 01:29:03;;;;;;;8.05;3.35;;;;;;;3.91;54.88;102106.72;1745632;81;21062;-56
2021/10/25 01:31:31;;;;;;;8.75;2.85;;;;;;;3.84;54.93;102114.74;1736568;81;21102;-56
2021/10/25 01:33:58;;;;;;;8.30;3.47;;;;;;;3.77;55.14;102117.94;1740596;80;21058;-57
2021/10/25 01:36:26;;;;;;;6.20;3.15;;;;;;;3.72;55.33;102118.49;1743181;80;21823;-58
2021/10/25 01:38:53;;;;;;;8.98;3.17;;;;;;;3.67;55.48;102122.50;1745782;80;21003;-58
2021/10/25 01:41:20;;;;;;;9.08;3.62;;;;;;;3.61;55.63;102126.53;1740044;80;21551;-58
2021/10/25 01:43:47;;;;;;;7.65;3.80;;;;;;;3.56;55.80;102128.39;1744284;80;21132;-58
2021/10/25 01:46:13;;;;;;;7.50;3.47;;;;;;;3.51;55.98;102131.13;1724599;80;21062;-58
2021/10/25 01:48:40;;;;;;;7.58;3.62;;;;;;;3.48;56.08;102135.09;1727116;81;21257;-58
2021/10/25 01:51:06;;;;;;;12.55;4.17;;;;;;;3.42;56.15;102130.01;1737769;81;21725;-58
2021/10/25 01:53:35;;;;;;;9.53;4.03;;;;;;;3.39;56.35;102141.78;1743767;81;21097;-57
2021/10/25 01:56:02;;;;;;;8.88;3.80;;;;;;;3.34;56.49;102144.47;1737820;80;21145;-58
2021/10/25 01:58:30;;;;;;;9.53;3.85;;;;;;;3.29;56.58;102147.63;1732155;80;21058;-57
2021/10/25 02:00:58;;;;;;;9.45;4.42;;;;;;;3.25;56.73;102149.89;1730406;81;21834;-58
2021/10/25 02:03:25;;;;;;;8.68;3.42;;;;;;;3.19;56.81;102147.41;1735186;80;21176;-58
2021/10/25 02:05:53;;;;;;;13.72;4.28;;;;;;;3.19;56.88;102151.77;1741314;80;21504;-56
2021/10/25 02:08:23;;;;;;;8.63;4.17;;;;;;;3.15;57.01;102149.22;1739090;80;21604;-57
2021/10/25 02:10:54;;;;;;;8.98;3.92;;;;;;;3.11;57.17;102154.51;1742535;80;21106;-58
2021/10/25 02:13:21;;;;;;;8.83;4.28;;;;;;;3.07;57.29;102155.48;1741029;80;21071;-57
2021/10/25 02:15:47;;;;;;;10.70;4.55;;;;;;;3.04;57.41;102155.08;1729914;81;21598;-57
2021/10/25 02:18:16;;;;;;;9.70;4.55;;;;;;;3.01;57.50;102155.16;1735387;81;21488;-58
2021/10/25 02:20:43;;;;;;;9.30;4.58;;;;;;;3.00;57.53;102156.04;1741286;81;21043;-58
2021/10/25 02:23:12;;;;;;;8.18;4.28;;;;;;;2.98;57.56;102158.67;1741867;80;21079;-58
2021/10/25 02:25:40;;;;;;;9.68;4.42;;;;;;;2.99;57.67;102167.31;1705167;81;22365;-57
2021/10/25 02:28:08;;;;;;;9.90;3.72;;;;;;;2.98;57.65;102168.22;1722350;82;21066;-58
2021/10/25 02:30:34;;;;;;;6.90;3.35;;;;;;;2.99;57.63;102169.91;1730495;81;21110;-58
2021/10/25 02:33:03;;;;;;;7.53;3.10;;;;;;;2.99;57.67;102167.31;1739163;82;21046;-57
2021/10/25 02:35:31;;;;;;;7.83;3.87;;;;;;;2.94;57.70;102167.44;1727066;80;21027;-57
2021/10/25 02:37:58;;;;;;;9.93;3.62;;;;;;;2.90;57.77;102161.02;1742435;80;21855;-58
2021/10/25 02:40:27;;;;;;;6.87;3.27;;;;;;;2.90;57.85;102163.61;1727253;80;21085;-57
2021/10/25 02:42:54;;;;;;;7.47;3.58;;;;;;;2.87;57.85;102168.87;1721879;80;21058;-58
2021/10/25 02:45:21;;;;;;;8.08;3.52;;;;;;;2.85;57.92;102178.45;1733603;80;21066;-58
2021/10/25 02:47:48;;;;;;;7.55;3.75;;;;;;;2.85;57.96;102175.84;1732688;80;21027;-58
2021/10/25 02:50:16;;;;;;;8.08;3.42;;;;;;;2.83;58.06;102175.02;1730025;80;21147;-58
2021/10/25 02:52:43;;;;;;;10.03;3.90;;;;;;;2.82;58.12;102178.50;1729902;80;21062;-58
2021/10/25 02:55:10;;;;;;;8.40;3.45;;;;;;;2.80;58.10;102181.12;1726409;80;21083;-58
2021/10/25 02:57:38;;;;;;;8.10;3.95;;;;;;;2.75;58.25;102178.60;1732071;80;21785;-58
2021/10/25 03:00:07;;;;;;;7.55;3.67;;;;;;;2.70;58.31;102176.98;1734596;80;20980;-57
2021/10/25 03:02:35;;;;;;;8.43;3.62;;;;;;;2.61;58.50;102183.22;1710864;80;21126;-57
2021/10/25 03:05:02;;;;;;;8.18;3.62;;;;;;;2.56;58.60;102183.29;1733155;80;21098;-58
2021/10/25 03:07:29;;;;;;;7.83;3.62;;;;;;;2.50;58.66;102185.13;1720892;80;21481;-58
2021/10/25 03:09:58;;;;;;;8.13;3.45;;;;;;;2.46;58.79;102185.63;1732649;80;21082;-58
2021/10/25 03:12:26;;;;;;;8.48;3.58;;;;;;;2.44;58.91;102188.71;1737890;80;21055;-57
2021/10/25 03:14:54;;;;;;;8.20;4.20;;;;;;;2.45;59.07;102194.75;1751169;80;21106;-58
2021/10/25 03:17:21;;;;;;;8.60;4.12;;;;;;;2.44;59.08;102195.63;1711836;81;21367;-57
2021/10/25 03:19:53;;;;;;;8.18;3.83;;;;;;;2.49;59.20;102201.59;1730771;80;21550;-57
2021/10/25 03:22:20;;;;;;;9.35;4.10;;;;;;;2.54;59.21;102201.08;1741691;80;21036;-56
2021/10/25 03:24:46;;;;;;;6.58;3.77;;;;;;;2.56;59.13;102201.48;1726855;80;21643;-56
2021/10/25 03:27:14;;;;;;;11.63;4.47;;;;;;;2.62;59.06;102206.16;1733931;80;21668;-56
2021/10/25 03:29:41;;;;;;;11.00;4.65;;;;;;;2.63;59.08;102206.58;1702856;80;21106;-57
2021/10/25 03:32:07;;;;;;;8.25;4.35;;;;;;;2.65;59.08;102208.70;1739038;80;21034;-56
2021/10/25 03:34:35;;;;;;;11.75;4.17;;;;;;;2.66;59.11;102213.03;1729447;80;21484;-56
2021/10/25 03:37:02;;;;;;;7.83;4.12;;;;;;;2.67;59.14;102212.13;1740880;80;21035;-56
2021/10/25 03:39:32;;;;;;;10.72;4.80;;;;;;;2.63;59.11;102208.73;1741359;80;21111;-56
2021/10/25 03:41:58;;;;;;;23.02;10.08;;;;;;;2.58;59.04;102205.35;1745730;80;21101;-57
2021/10/25 03:44:28;;;;;;;31.45;18.67;;;;;;;2.51;59.08;102199.41;1726142;81;21568;-57
2021/10/25 03:47:03;;;;;;;54.33;35.55;;;;;;;2.48;59.04;102202.50;1733705;80;21673;-56
2021/10/25 03:49:35;;;;;;;49.60;29.87;;;;;;;2.44;59.12;102201.70;1738160;80;21528;-58
2021/10/25 03:54:56;;;;;;;26.93;16.75;;;;;;;2.44;59.06;102202.12;1681917;82;21899;-56
2021/10/25 03:59:58;;;;;;;17.48;10.40;;;;;;;2.50;59.05;102205.92;1683002;83;21106;-57
2021/10/25 04:02:45;;;;;;;18.70;9.88;;;;;;;2.53;59.04;102209.33;1685535;83;21103;-56
2021/10/25 04:29:39;;;;;;;11.90;5.60;;;;;;;2.12;59.67;102229.05;1672375;83;21209;-56
2021/10/25 04:32:07;;;;;;;12.85;6.15;;;;;;;2.13;59.67;102230.75;1723622;80;21854;-57
2021/10/25 04:34:35;;;;;;;12.25;5.78;;;;;;;2.17;59.63;102227.66;1723320;80;21062;-58
2021/10/25 04:37:15;;;;;;;11.43;5.78;;;;;;;2.19;59.63;102232.41;1724948;80;21092;-58
2021/10/25 04:39:46;;;;;;;10.08;5.60;;;;;;;2.24;59.60;102234.50;1724306;82;21086;-58
2021/10/25 04:42:16;;;;;;;10.38;4.95;;;;;;;2.27;59.53;102242.66;1727461;82;21062;-57
2021/10/25 04:44:47;;;;;;;11.12;5.47;;;;;;;2.31;59.41;102243.05;1731486;81;21919;-57
2021/10/25 04:47:14;;;;;;;11.75;5.28;;;;;;;2.30;59.31;102246.06;1726791;80;21062;-55
2021/10/25 04:49:41;;;;;;;13.78;5.65;;;;;;;2.32;59.27;102252.12;1729289;80;21028;-55
2021/10/25 04:52:12;;;;;;;10.75;5.10;;;;;;;2.31;59.20;102255.59;1686444;80;21074;-55
2021/10/25 04:54:40;;;;;;;11.83;5.30;;;;;;;2.33;59.13;102257.72;1718233;80;21094;-56
2021/10/25 04:57:06;;;;;;;12.88;5.25;;;;;;;2.31;59.09;102253.45;1726149;80;21771;-57
2021/10/25 04:59:33;;;;;;;13.22;5.28;;;;;;;2.35;59.11;102259.84;1728750;80;21015;-57
2021/10/25 05:02:00;;;;;;;13.50;5.22;;;;;;;2.35;59.08;102259.84;1724881;80;22020;-57
2021/10/25 05:04:28;;;;;;;10.93;5.80;;;;;;;2.36;59.33;102265.47;1719702;81;20988;-56
2021/10/25 05:06:54;;;;;;;11.00;5.55;;;;;;;2.35;59.76;102268.94;1722545;80;21604;-56
2021/10/25 05:09:20;;;;;;;12.58;5.75;;;;;;;2.31;60.07;102269.88;1729570;80;21110;-58
2021/10/25 05:11:47;;;;;;;12.45;5.95;;;;;;;2.33;60.19;102269.86;1717059;80;21122;-58
2021/10/25 05:14:15;;;;;;;12.00;5.40;;;;;;;2.32;60.20;102272.91;1726735;80;21043;-55
2021/10/25 05:16:43;;;;;;;13.10;5.37;;;;;;;2.37;60.21;102272.81;1727638;80;21114;-57
2021/10/25 05:19:10;;;;;;;12.43;5.95;;;;;;;2.39;60.14;102271.92;1724512;80;21086;-56
2021/10/25 05:21:38;;;;;;;17.92;6.70;;;;;;;2.45;59.91;102274.85;1723702;80;21115;-56
2021/10/25 05:24:05;;;;;;;11.48;5.62;;;;;;;2.47;59.93;102272.23;1733965;80;21070;-56
2021/10/25 05:26:33;;;;;;;12.98;5.22;;;;;;;2.51;59.76;102280.41;1734115;80;21086;-57
2021/10/25 05:29:00;;;;;;;11.80;5.72;;;;;;;2.53;59.67;102279.48;1720843;81;21097;-58
2021/10/25 05:31:26;;;;;;;10.85;5.72;;;;;;;2.54;59.74;102279.92;1733261;80;21054;-58
2021/10/25 05:33:53;;;;;;;15.88;6.47;;;;;;;2.64;59.63;102282.35;1725560;80;21545;-56
2021/10/25 05:36:19;;;;;;;11.78;6.40;;;;;;;2.67;59.48;102294.85;1727642;80;21050;-57
2021/10/25 05:38:46;;;;;;;14.10;5.87;;;;;;;2.69;59.45;102294.41;1714379;81;21114;-58
2021/10/25 05:41:13;;;;;;;14.38;8.50;;;;;;;2.74;59.46;102298.21;1719836;81;21111;-55
2021/10/25 05:43:41;;;;;;;18.07;8.38;;;;;;;2.77;59.36;102299.05;1730633;80;21521;-55
2021/10/25 05:46:08;;;;;;;13.93;8.90;;;;;;;2.81;59.15;102304.16;1720469;81;21058;-56
2021/10/25 05:48:34;;;;;;;15.83;8.23;;;;;;;2.84;59.12;102305.42;1700610;82;21107;-55
2021/10/25 05:51:04;;;;;;;14.00;7.35;;;;;;;2.88;59.03;102309.70;1728949;80;21542;-55
2021/10/25 05:53:32;;;;;;;15.48;8.18;;;;;;;2.92;58.94;102310.05;1728120;80;21086;-56
2021/10/25 05:55:59;;;;;;;15.95;8.43;;;;;;;3.00;58.81;102320.34;1722144;80;21054;-56
2021/10/25 05:58:26;;;;;;;18.10;8.05;;;;;;;3.06;58.72;102317.61;1725182;80;22655;-56
2021/10/25 06:00:58;;;;;;;15.68;7.97;;;;;;;3.13;58.71;102322.69;1722361;81;21075;-55
2021/10/25 06:03:28;;;;;;;14.43;7.30;;;;;;;3.20;58.68;102319.98;1713504;80;21034;-56
2021/10/25 06:05:53;;;;;;;15.78;7.58;;;;;;;3.27;58.75;102328.08;1705066;81;21075;-55
2021/10/25 06:08:20;;;;;;;19.02;7.85;;;;;;;3.33;58.70;102330.59;1725963;80;21047;-57
2021/10/25 06:10:50;;;;;;;17.82;8.05;;;;;;;3.40;58.57;102336.53;1729030;80;22336;-57
2021/10/25 06:13:33;;;;;;;14.45;7.47;;;;;;;3.44;58.67;102338.17;1724559;80;21049;-57
2021/10/25 06:16:19;;;;;;;18.50;9.18;;;;;;;3.53;58.66;102332.78;1725118;80;21361;-56
2021/10/25 06:18:46;;;;;;;14.45;8.00;;;;;;;3.61;58.43;102337.85;1721754;80;21340;-57
2021/10/25 06:21:13;;;;;;;14.05;7.28;;;;;;;3.66;58.25;102347.73;1726364;80;21069;-58
2021/10/25 06:23:39;;;;;;;22.52;9.15;;;;;;;3.71;58.14;102338.92;1730799;80;21093;-58
2021/10/25 06:26:08;;;;;;;13.15;7.97;;;;;;;3.79;58.00;102344.00;1708483;81;21067;-58
2021/10/25 06:28:36;;;;;;;14.98;8.60;;;;;;;3.87;57.80;102350.36;1729281;80;21124;-57
2021/10/25 06:31:05;;;;;;;15.85;7.42;;;;;;;3.96;57.69;102344.10;1739811;80;20971;-58
2021/10/25 06:33:43;;;;;;;14.25;8.05;;;;;;;4.04;57.50;102345.65;1720176;80;21019;-58
2021/10/25 06:36:07;;;;;;;14.65;7.80;;;;;;;4.11;57.30;102348.98;1720966;80;21970;-56
2021/10/25 06:38:44;;;;;;;22.82;8.45;;;;;;;4.17;57.11;102347.98;1737874;80;21331;-57
2021/10/25 06:41:10;;;;;;;16.17;8.48;;;;;;;4.20;57.09;102351.41;1729908;81;21050;-56
2021/10/25 06:43:37;;;;;;;14.60;8.75;;;;;;;4.24;56.93;102358.25;1738365;80;21153;-56
2021/10/25 06:46:06;;;;;;;13.98;7.25;;;;;;;4.27;56.83;102354.28;1736920;80;21074;-56
2021/10/25 06:48:33;;;;;;;15.68;7.72;;;;;;;4.31;56.94;102351.61;1735212;80;21146;-55
2021/10/25 06:50:59;;;;;;;18.27;8.58;;;;;;;4.37;56.79;102350.15;1741553;80;22209;-56
2021/10/25 06:53:28;;;;;;;13.78;7.70;;;;;;;4.45;56.63;102359.53;1740318;81;21224;-56
2021/10/25 06:58:55;;;;;;;12.82;6.58;;;;;;;4.58;56.27;102354.02;1793293;78;22917;-56
2021/10/25 07:12:36;;;;;;;14.50;6.12;;;;;;;6.28;54.26;102349.91;1806570;77;22092;-58
2021/10/25 07:15:04;;;;;;;18.80;7.20;;;;;;;6.57;53.42;102353.38;1809414;78;21005;-58
2021/10/25 07:17:52;;;;;;;9.50;5.28;;;;;;;6.55;53.04;102352.58;1809030;77;21136;-57
2021/10/25 08:00:10;;;;;;;9.50;3.92;;;;;;;6.02;52.86;102375.54;1776955;78;21122;-56
2021/10/25 08:02:12;;;;;;;9.63;4.80;;;;;;;6.04;53.05;102367.66;1700781;81;21669;-56
2021/10/25 08:12:12;;;;;;;6.85;3.25;;;;;;;6.16;52.12;102365.13;1753086;79;21540;-58
2021/10/25 08:14:47;;;;;;;9.35;3.55;;;;;;;6.20;51.54;102361.51;1737611;80;21340;-58
2021/10/25 08:17:09;;;;;;;7.78;2.72;;;;;;;6.27;51.66;102368.26;1702709;81;21261;-58
2021/10/25 08:19:36;;;;;;;8.38;3.35;;;;;;;6.30;51.17;102371.66;1766829;79;21101;-57
2021/10/25 08:22:11;;;;;;;7.65;3.25;;;;;;;6.34;50.82;102367.19;1705971;81;21853;-58
2021/10/25 08:24:40;;;;;;;7.00;3.75;;;;;;;6.42;50.66;102365.20;1766608;79;21114;-57
2021/10/25 08:27:12;;;;;;;6.87;2.77;;;;;;;6.48;50.28;102367.60;1735586;80;21090;-58
2021/10/25 08:29:40;;;;;;;5.35;2.22;;;;;;;6.52;49.81;102360.52;1695327;82;21425;-58
2021/10/25 08:32:17;;;;;;;5.40;1.72;;;;;;;6.57;49.34;102367.77;1764047;79;22372;-57
2021/10/25 08:40:18;;;;;;;10.30;3.37;;;;;;;6.68;49.25;102355.20;1708371;81;21754;-56
2021/10/25 08:42:44;;;;;;;8.40;2.83;;;;;;;6.73;50.01;102349.83;1733544;81;21102;-56
2021/10/25 08:45:17;;;;;;;8.65;2.65;;;;;;;6.78;48.77;102359.70;1769035;80;21086;-57
2021/10/25 08:47:46;;;;;;;6.70;3.10;;;;;;;6.80;48.99;102350.03;1764812;80;21113;-57
2021/10/25 08:50:19;;;;;;;5.55;2.37;;;;;;;6.87;48.48;102348.91;1687559;81;21098;-57
2021/10/25 08:52:45;;;;;;;7.22;3.00;;;;;;;6.94;48.56;102346.10;1735687;81;21051;-57
2021/10/25 08:55:16;;;;;;;7.08;2.90;;;;;;;7.02;47.99;102349.32;1713918;81;21032;-57
2021/10/25 08:57:42;;;;;;;7.90;3.30;;;;;;;7.06;47.80;102349.61;1713235;82;21038;-57
2021/10/25 09:00:12;;;;;;;8.95;3.65;;;;;;;7.12;47.91;102348.56;1731857;81;21085;-58
2021/10/25 09:02:42;;;;;;;7.30;3.40;;;;;;;7.16;47.46;102343.17;1706807;81;21050;-57
2021/10/25 09:05:20;;;;;;;11.18;4.03;;;;;;;7.22;47.03;102338.17;1761411;80;21074;-57
2021/10/25 09:07:58;;;;;;;10.45;4.22;;;;;;;7.28;46.67;102329.23;1724010;81;22289;-58
2021/10/25 09:10:39;;;;;;;8.73;3.92;;;;;;;7.31;47.20;102332.59;1737978;81;21984;-58
2021/10/25 09:13:08;;;;;;;8.35;3.83;;;;;;;7.28;46.91;102327.49;1741893;80;21086;-57
2021/10/25 09:15:39;;;;;;;12.18;3.20;;;;;;;7.29;46.63;102334.42;1745470;80;21647;-59
2021/10/25 09:18:14;;;;;;;7.00;3.10;;;;;;;7.30;46.60;102328.29;1744415;81;21137;-58
2021/10/25 09:20:54;;;;;;;7.70;3.62;;;;;;;7.31;46.34;102329.14;1749458;81;21058;-58
2021/10/25 09:23:25;;;;;;;8.45;4.25;;;;;;;7.30;46.54;102330.91;1747801;81;21150;-58
2021/10/25 09:25:54;;;;;;;8.88;3.55;;;;;;;7.29;46.94;102329.19;1748462;81;21066;-57
2021/10/25 09:28:26;;;;;;;10.85;3.77;;;;;;;7.29;46.61;102330.95;1719037;81;21236;-60
2021/10/25 09:30:59;;;;;;;7.72;3.95;;;;;;;7.33;46.68;102328.19;1742956;80;22178;-59
2021/10/25 09:33:37;;;;;;;12.85;3.90;;;;;;;7.41;46.69;102322.23;1744781;80;20995;-58
2021/10/25 09:36:09;;;;;;;;;;;;;;;7.52;46.14;102327.06;1747456;80;21049;-57
2021/10/25 09:38:58;;;;;;;9.98;3.58;;;;;;;7.58;45.93;102322.92;1745572;80;20135;-57
2021/10/25 09:41:41;;;;;;;11.88;4.15;;;;;;;7.62;46.36;102324.51;1748810;80;21193;-58
2021/10/25 09:49:57;;;;;;;8.63;3.52;;;;;;;7.81;44.71;102318.59;1718483;81;21114;-56
2021/10/25 09:52:33;;;;;;;10.65;3.02;;;;;;;7.86;44.03;102320.58;1734385;80;21058;-57
2021/10/25 09:55:06;;;;;;;12.63;3.67;;;;;;;7.89;44.12;102318.31;1700088;81;21395;-57
2021/10/25 10:00:31;;;;;;;7.33;3.92;;;;;;;8.02;44.02;102313.44;1746583;80;21141;-58
2021/10/25 10:02:58;;;;;;;13.75;3.72;;;;;;;8.06;44.09;102318.98;1744210;80;21121;-56
2021/10/25 10:05:35;;;;;;;7.47;3.65;;;;;;;8.13;43.83;102317.81;1749372;80;21105;-58
2021/10/25 10:07:56;;;;;;;7.92;3.62;;;;;;;8.20;43.06;102314.03;1715858;81;21124;-57
2021/10/25 10:10:26;;;;;;;10.30;3.22;;;;;;;8.25;42.74;102311.23;1752681;80;21496;-59
2021/10/25 10:12:56;;;;;;;9.53;3.50;;;;;;;8.27;42.65;102306.78;1743832;80;21149;-57
2021/10/25 10:15:26;;;;;;;7.37;3.55;;;;;;;8.32;42.91;102307.02;1714550;81;21038;-58
2021/10/25 10:17:59;;;;;;;11.93;4.25;;;;;;;8.35;42.59;102301.65;1743091;80;22158;-58
2021/10/25 10:20:30;;;;;;;10.40;3.92;;;;;;;8.40;41.98;102306.69;1760173;80;21147;-57
2021/10/25 10:23:08;;;;;;;8.23;3.15;;;;;;;8.44;42.33;102295.20;1735235;80;21048;-58
2021/10/25 10:25:52;;;;;;;10.40;4.12;;;;;;;8.49;42.48;102288.00;1769298;80;21623;-57
2021/10/25 10:28:33;;;;;;;11.05;4.20;;;;;;;8.59;41.92;102288.92;1742497;80;20949;-57
2021/10/25 10:31:11;;;;;;;12.10;4.30;;;;;;;8.68;41.83;102291.18;1765181;79;20940;-58
2021/10/25 10:33:46;;;;;;;12.65;3.65;;;;;;;8.74;41.21;102289.59;1703508;82;21074;-57
2021/10/25 10:36:23;;;;;;;9.28;4.00;;;;;;;8.77;41.13;102287.31;1759067;79;21047;-58
2021/10/25 10:39:04;;;;;;;8.30;3.55;;;;;;;8.79;41.29;102292.03;1707402;81;21098;-58
2021/10/25 10:41:43;;;;;;;6.67;3.12;;;;;;;8.78;41.06;102285.94;1763537;79;21177;-58
2021/10/25 10:44:24;;;;;;;7.70;2.72;;;;;;;8.81;41.11;102281.88;1740711;80;21115;-57
2021/10/25 10:47:02;;;;;;;11.08;3.55;;;;;;;8.90;41.04;102284.56;1734463;80;21584;-60
2021/10/25 10:49:56;;;;;;;10.00;3.62;;;;;;;8.98;40.73;102283.78;1709440;82;21596;-57
2021/10/25 10:52:32;;;;;;;8.85;3.47;;;;;;;9.04;39.99;102280.02;1766474;79;21120;-56
2021/10/25 10:55:19;;;;;;;13.15;4.05;;;;;;;9.09;40.86;102284.17;1734804;80;21125;-57
2021/10/25 11:00:44;;;;;;;8.18;4.03;;;;;;;9.11;40.00;102287.58;1762148;79;21134;-58
2021/10/25 11:03:24;;;;;;;9.73;4.25;;;;;;;9.18;39.84;102285.98;1734431;80;21119;-57
2021/10/25 11:06:11;;;;;;;12.30;4.33;;;;;;;9.26;39.65;102278.63;1763978;79;21062;-57
2021/10/25 11:08:45;;;;;;;11.80;3.90;;;;;;;9.33;39.23;102272.63;1760807;79;21082;-58
2021/10/25 11:11:16;;;;;;;7.90;4.08;;;;;;;9.43;39.62;102271.30;1728857;81;21091;-57
2021/10/25 11:13:55;;;;;;;7.80;3.90;;;;;;;9.49;38.67;102271.03;1741890;80;21130;-58
2021/10/25 11:16:33;;;;;;;10.95;5.08;;;;;;;9.51;39.18;102274.44;1739495;81;21654;-57
2021/10/25 11:18:58;;;;;;;9.95;3.55;;;;;;;9.54;38.95;102276.92;1746513;81;21043;-58
2021/10/25 11:21:30;;;;;;;9.23;3.85;;;;;;;9.57;38.49;102273.33;1701027;81;21366;-58
2021/10/25 11:24:08;;;;;;;9.48;3.90;;;;;;;9.58;38.39;102267.13;1766569;79;21020;-57
2021/10/25 11:26:43;;;;;;;16.55;4.25;;;;;;;9.63;38.65;102267.33;1736227;80;21933;-57
2021/10/25 11:29:16;;;;;;;11.68;4.40;;;;;;;9.70;38.53;102267.90;1736159;82;21576;-57
2021/10/25 11:31:58;;;;;;;12.82;4.65;;;;;;;9.76;38.30;102266.28;1738234;80;21047;-58
2021/10/25 11:34:29;;;;;;;10.72;3.85;;;;;;;9.85;38.23;102264.98;1772171;79;21133;-58
2021/10/25 11:37:03;;;;;;;11.35;4.55;;;;;;;9.94;38.32;102258.00;1767647;79;21102;-57
2021/10/25 11:39:50;;;;;;;11.30;4.05;;;;;;;10.03;38.44;102256.70;1763652;79;21866;-58
2021/10/25 11:42:15;;;;;;;10.55;3.72;;;;;;;10.11;38.74;102255.88;1737896;80;21066;-58
2021/10/25 11:44:46;;;;;;;8.08;3.20;;;;;;;10.23;38.33;102253.11;1766042;80;21050;-58
2021/10/25 11:47:24;;;;;;;9.38;3.42;;;;;;;10.34;38.25;102257.42;1718956;80;21435;-58
2021/10/25 11:49:53;;;;;;;14.93;4.15;;;;;;;10.45;37.45;102251.62;1741620;80;21102;-58
2021/10/25 11:52:19;;;;;;;8.23;3.47;;;;;;;10.50;37.19;102246.97;1736348;79;21063;-58
2021/10/25 11:54:52;;;;;;;12.33;3.30;;;;;;;10.56;37.66;102247.16;1767468;79;21054;-58
2021/10/25 11:57:20;;;;;;;9.93;3.60;;;;;;;10.60;36.94;102239.47;1702819;81;21299;-57
2021/10/25 12:00:02;;;;;;;10.63;3.70;;;;;;;10.66;36.94;102239.62;1762487;79;21406;-59
2021/10/25 12:02:36;;;;;;;6.17;3.37;;;;;;;10.71;37.11;102233.68;1724588;80;21106;-57
2021/10/25 12:05:04;;;;;;;34.78;6.15;;;;;;;10.78;37.13;102227.16;1740419;80;21146;-58
2021/10/25 12:07:31;;;;;;;9.15;3.52;;;;;;;10.90;36.90;102223.88;1769802;79;21014;-57
2021/10/25 12:10:06;;;;;;;8.58;3.45;;;;;;;11.05;37.22;102220.08;1736124;81;21523;-57
2021/10/25 12:12:33;;;;;;;6.78;2.95;;;;;;;11.19;36.98;102221.49;1734681;80;21400;-57
2021/10/25 12:15:01;;;;;;;12.75;3.22;;;;;;;11.31;36.41;102218.22;1731515;79;21784;-59
2021/10/25 12:17:35;;;;;;;7.20;3.30;;;;;;;11.46;36.28;102223.10;1768574;79;21671;-60
2021/10/25 12:20:05;;;;;;;9.65;3.55;;;;;;;11.58;35.83;102223.37;1763171;80;21039;-57
2021/10/25 12:22:32;;;;;;;10.93;3.55;;;;;;;11.69;34.76;102219.20;1759437;79;21067;-57
2021/10/25 12:24:59;;;;;;;8.68;3.60;;;;;;;11.77;35.55;102213.52;1768319;79;21280;-59
2021/10/25 12:27:36;;;;;;;8.00;3.85;;;;;;;11.90;34.93;102213.22;1740180;80;21034;-58
2021/10/25 12:30:09;;;;;;;8.38;3.35;;;;;;;12.17;34.12;102207.34;1765515;80;21246;-57
2021/10/25 12:32:39;;;;;;;7.87;3.47;;;;;;;13.53;33.01;102205.32;1742517;80;21556;-59
2021/10/25 12:35:06;;;;;;;9.28;3.90;;;;;;;14.90;31.70;102196.73;1741076;80;21066;-57
2021/10/25 12:37:34;;;;;;;7.45;3.35;;;;;;;16.38;29.97;102198.48;1730739;80;21023;-58
2021/10/25 12:40:00;;;;;;;8.95;3.65;;;;;;;17.83;28.38;102198.09;1729987;81;21503;-58
2021/10/25 12:42:40;;;;;;;7.47;2.85;;;;;;;19.17;26.59;102187.30;1766031;79;21491;-59
2021/10/25 12:45:18;;;;;;;7.97;3.58;;;;;;;20.34;24.77;102194.59;1714354;81;21085;-58
2021/10/25 12:47:48;;;;;;;9.20;3.10;;;;;;;21.23;23.55;102183.98;1736512;80;21011;-57
2021/10/25 12:50:15;;;;;;;7.72;3.62;;;;;;;21.91;22.57;102182.22;1730618;81;21385;-58
2021/10/25 12:52:44;;;;;;;15.28;11.40;;;;;;;22.49;22.21;102187.54;1765881;79;21591;-57
2021/10/25 12:55:11;;;;;;;8.55;3.85;;;;;;;23.00;20.73;102184.48;1737123;80;21151;-57
2021/10/25 12:57:39;;;;;;;8.13;3.52;;;;;;;23.38;19.72;102188.16;1763610;79;21639;-57
2021/10/25 13:00:10;;;;;;;9.25;4.08;;;;;;;23.67;19.53;102186.39;1731062;81;21470;-58
2021/10/25 13:02:47;;;;;;;7.15;3.90;;;;;;;23.90;19.63;102183.07;1764620;79;21529;-58
2021/10/25 13:05:24;;;;;;;7.90;3.60;;;;;;;24.26;19.03;102182.23;1695759;80;21116;-58
2021/10/25 13:07:57;;;;;;;7.50;3.92;;;;;;;24.42;18.80;102178.66;1747065;81;21120;-58
2021/10/25 13:10:29;;;;;;;7.30;3.30;;;;;;;24.60;18.88;102177.15;1737472;80;21925;-59
2021/10/25 13:12:57;;;;;;;8.63;3.52;;;;;;;24.86;18.76;102173.36;1765431;79;21101;-57
2021/10/25 13:15:25;;;;;;;9.35;4.00;;;;;;;24.98;18.83;102173.33;1787786;78;22331;-57
2021/10/25 13:17:54;;;;;;;8.48;3.70;;;;;;;25.18;19.02;102177.78;1783711;78;21054;-57
2021/10/25 13:20:22;;;;;;;7.30;3.35;;;;;;;24.91;18.81;102172.33;1783496;78;21123;-58
2021/10/25 13:22:51;;;;;;;7.65;3.80;;;;;;;24.81;18.81;102160.93;1782505;78;21022;-58
2021/10/25 13:25:18;;;;;;;7.87;3.58;;;;;;;24.75;18.85;102159.78;1723598;80;21010;-57
2021/10/25 13:27:45;;;;;;;8.58;3.60;;;;;;;24.77;18.84;102163.65;1727109;81;21255;-58
2021/10/25 13:30:13;;;;;;;8.63;3.92;;;;;;;24.79;19.01;102161.09;1720842;80;21618;-58